createdAt,value
2023-08-14T00:00:15.233Z,11.30
2023-08-14T00:02:43.655Z,12.37
2023-08-14T00:05:11.656Z,13.87
2023-08-14T00:07:39.646Z,11.53
2023-08-14T00:10:08.179Z,15.77
2023-08-14T00:12:35.999Z,16.00
2023-08-14T00:15:03.765Z,9.93
2023-08-14T00:17:33.390Z,12.30
2023-08-14T00:20:01.320Z,12.97
2023-08-14T00:22:29.565Z,14.00
2023-08-14T00:24:57.408Z,19.90
2023-08-14T00:27:26.195Z,12.70
2023-08-14T00:29:54.044Z,12.03
2023-08-14T00:32:22.205Z,9.60
2023-08-14T00:34:51.446Z,15.50
2023-08-14T00:37:19.556Z,15.97
2023-08-14T00:39:47.656Z,13.93
2023-08-14T00:42:15.769Z,12.80
2023-08-14T00:44:43.763Z,13.13
2023-08-14T00:47:12.608Z,13.30
2023-08-14T00:49:40.402Z,8.80
2023-08-14T00:52:10.766Z,9.00
2023-08-14T00:54:41.048Z,11.60
2023-08-14T00:57:08.860Z,19.00
2023-08-14T00:59:37.071Z,10.70
2023-08-14T01:02:05.506Z,14.67
2023-08-14T01:04:33.380Z,11.00
2023-08-14T01:07:04.327Z,12.27
2023-08-14T01:09:34.594Z,9.33
2023-08-14T01:12:08.934Z,12.10
2023-08-14T01:14:38.099Z,14.60
2023-08-14T01:17:11.023Z,12.30
2023-08-14T01:19:41.942Z,16.87
2023-08-14T01:22:18.789Z,17.73
2023-08-14T01:24:55.196Z,16.53
2023-08-14T01:27:25.168Z,12.93
2023-08-14T01:29:56.815Z,13.27
2023-08-14T01:32:25.425Z,13.63
2023-08-14T01:34:53.638Z,12.73
2023-08-14T01:37:27.550Z,13.90
2023-08-14T01:39:57.515Z,14.07
2023-08-14T01:42:29.956Z,12.20
2023-08-14T01:45:01.723Z,19.30
2023-08-14T01:47:31.306Z,11.23
2023-08-14T01:50:00.130Z,10.30
2023-08-14T01:52:28.008Z,12.80
2023-08-14T01:55:00.550Z,14.70
2023-08-14T01:57:31.127Z,10.27
2023-08-14T01:59:59.419Z,12.45
2023-08-14T02:02:27.614Z,15.17
2023-08-14T02:04:55.448Z,13.90
2023-08-14T02:07:23.353Z,12.93
2023-08-14T02:09:51.786Z,10.40
2023-08-14T02:12:19.685Z,18.10
2023-08-14T02:14:49.518Z,18.60
2023-08-14T02:17:19.679Z,11.53
2023-08-14T02:19:47.754Z,12.23
2023-08-14T02:22:15.938Z,10.57
2023-08-14T02:24:44.438Z,13.50
2023-08-14T02:27:12.169Z,13.43
2023-08-14T02:29:41.073Z,10.50
2023-08-14T02:32:11.583Z,10.63
2023-08-14T02:34:46.304Z,14.67
2023-08-14T02:37:15.361Z,10.77
2023-08-14T02:39:43.435Z,11.43
2023-08-14T02:42:11.890Z,13.90
2023-08-14T02:44:40.082Z,11.50
2023-08-14T02:47:08.210Z,9.60
2023-08-14T02:49:39.977Z,11.30
2023-08-14T02:52:07.850Z,12.23
2023-08-14T02:54:35.691Z,11.50
2023-08-14T02:57:04.054Z,9.57
2023-08-14T02:59:33.472Z,11.70
2023-08-14T03:02:01.986Z,10.50
2023-08-14T03:04:31.078Z,9.67
2023-08-14T03:07:00.415Z,10.63
2023-08-14T03:09:28.558Z,10.53
2023-08-14T03:11:56.376Z,13.60
2023-08-14T03:14:24.735Z,10.83
2023-08-14T03:16:52.789Z,10.20
2023-08-14T03:19:20.749Z,9.57
2023-08-14T03:21:52.261Z,10.60
2023-08-14T03:24:21.407Z,10.00
2023-08-14T03:26:49.341Z,11.80
2023-08-14T03:29:19.533Z,10.50
2023-08-14T03:31:48.263Z,9.60
2023-08-14T03:34:16.360Z,13.53
2023-08-14T03:36:44.975Z,15.77
2023-08-14T03:39:14.139Z,11.90
2023-08-14T03:41:45.188Z,15.80
2023-08-14T03:44:13.184Z,11.33
2023-08-14T03:46:40.909Z,13.50
2023-08-14T03:49:09.865Z,10.97
2023-08-14T03:51:38.420Z,15.87
2023-08-14T03:54:07.462Z,13.87
2023-08-14T03:56:35.387Z,9.50
2023-08-14T03:59:05.744Z,13.60
2023-08-14T04:01:33.895Z,9.00
2023-08-14T04:04:03.057Z,12.00
2023-08-14T04:06:31.087Z,13.73
2023-08-14T04:09:02.520Z,11.17
2023-08-14T04:11:31.791Z,10.60
2023-08-14T04:13:59.899Z,10.77
2023-08-14T04:16:42.668Z,13.40
2023-08-14T04:19:11.273Z,12.20
2023-08-14T04:21:39.119Z,14.63
2023-08-14T04:24:08.098Z,15.47
2023-08-14T04:26:37.767Z,10.93
2023-08-14T04:29:07.736Z,12.40
2023-08-14T04:31:37.427Z,12.03
2023-08-14T04:34:05.874Z,11.97
2023-08-14T04:36:36.217Z,12.43
2023-08-14T04:39:05.220Z,13.90
2023-08-14T04:41:33.148Z,11.90
2023-08-14T04:44:02.392Z,14.47
2023-08-14T04:46:41.127Z,13.10
2023-08-14T04:49:11.339Z,13.00
2023-08-14T04:51:39.360Z,10.57
2023-08-14T04:54:07.184Z,11.43
2023-08-14T04:56:35.644Z,11.17
2023-08-14T04:59:05.022Z,12.47
2023-08-14T05:01:33.713Z,12.80
2023-08-14T05:04:01.993Z,11.47
2023-08-14T05:06:31.236Z,12.40
2023-08-14T05:09:02.248Z,11.80
2023-08-14T05:11:32.663Z,12.00
2023-08-14T05:14:00.754Z,12.23
2023-08-14T05:16:28.902Z,12.60
2023-08-14T05:18:58.076Z,10.30
2023-08-14T05:21:26.110Z,25.63
2023-08-14T05:23:55.553Z,17.20
2023-08-14T05:26:23.691Z,10.77
2023-08-14T05:28:51.526Z,9.80
2023-08-14T05:31:19.359Z,15.93
2023-08-14T05:33:47.342Z,9.00
2023-08-14T05:36:15.059Z,11.40
2023-08-14T05:38:42.829Z,13.23
2023-08-14T05:41:12.343Z,18.70
2023-08-14T05:43:40.114Z,12.30
2023-08-14T05:46:09.576Z,13.27
2023-08-14T05:48:37.750Z,11.03
2023-08-14T05:51:05.537Z,16.50
2023-08-14T05:53:33.522Z,18.13
2023-08-14T05:56:01.760Z,9.87
2023-08-14T05:58:31.097Z,11.43
2023-08-14T06:00:59.343Z,10.63
2023-08-14T06:03:42.185Z,14.57
2023-08-14T06:06:12.653Z,9.47
2023-08-14T06:08:40.759Z,11.57
2023-08-14T06:11:08.597Z,9.57
2023-08-14T06:13:38.465Z,10.50
2023-08-14T06:16:06.876Z,13.93
2023-08-14T06:18:34.832Z,13.33
2023-08-14T06:21:03.014Z,15.87
2023-08-14T06:23:30.811Z,18.50
2023-08-14T06:25:59.097Z,10.10
2023-08-14T06:28:27.050Z,9.20
2023-08-14T06:30:56.717Z,11.20
2023-08-14T06:33:24.674Z,16.80
2023-08-14T06:35:52.426Z,11.40
2023-08-14T06:41:10.255Z,9.57
2023-08-14T06:43:38.295Z,11.17
2023-08-14T06:46:07.730Z,8.67
2023-08-14T06:48:35.634Z,7.83
2023-08-14T06:51:03.742Z,9.40
2023-08-14T06:53:32.739Z,10.30
2023-08-14T06:56:00.709Z,9.43
2023-08-14T06:58:28.617Z,11.40
2023-08-14T07:00:56.678Z,10.50
2023-08-14T07:03:25.897Z,12.53
2023-08-14T07:05:54.189Z,12.03
2023-08-14T07:08:22.006Z,8.60
2023-08-14T07:10:49.882Z,11.83
2023-08-14T07:13:17.923Z,10.73
2023-08-14T07:15:48.527Z,33.07
2023-08-14T07:18:17.181Z,13.53
2023-08-14T07:20:47.177Z,12.87
2023-08-14T07:23:15.098Z,18.67
2023-08-14T07:25:43.027Z,13.40
2023-08-14T07:28:10.999Z,8.33
2023-08-14T07:30:38.919Z,6.87
2023-08-14T07:33:07.234Z,10.10
2023-08-14T07:35:35.049Z,9.00
2023-08-14T07:38:04.598Z,8.70
2023-08-14T07:40:32.820Z,7.40
2023-08-14T07:43:00.604Z,8.50
2023-08-14T07:45:28.604Z,6.73
2023-08-14T07:47:56.665Z,6.37
2023-08-14T07:50:24.454Z,6.60
2023-08-14T07:52:52.878Z,5.30
2023-08-14T07:55:22.342Z,20.90
2023-08-14T07:57:50.226Z,7.73
2023-08-14T08:00:18.029Z,5.20
2023-08-14T08:02:46.145Z,5.07
2023-08-14T08:05:13.977Z,6.57
2023-08-14T08:07:43.054Z,10.27
2023-08-14T08:10:11.537Z,6.47
2023-08-14T08:12:40.612Z,5.00
2023-08-14T08:15:08.601Z,6.93
2023-08-14T08:17:36.905Z,5.80
2023-08-14T08:20:05.847Z,5.23
2023-08-14T08:22:33.812Z,5.70
2023-08-14T08:25:01.746Z,5.47
2023-08-14T08:27:29.473Z,9.47
2023-08-14T08:29:58.614Z,3.93
2023-08-14T08:32:28.473Z,4.90
2023-08-14T08:34:59.587Z,5.73
2023-08-14T08:37:27.379Z,4.60
2023-08-14T08:39:55.239Z,4.20
2023-08-14T08:42:24.182Z,7.20
2023-08-14T08:44:54.398Z,5.13
2023-08-14T08:47:24.977Z,10.50
2023-08-14T08:49:53.542Z,11.27
2023-08-14T08:52:21.929Z,4.60
2023-08-14T08:54:50.021Z,8.07
2023-08-14T08:57:18.668Z,6.03
2023-08-14T08:59:47.312Z,6.63
2023-08-14T09:02:15.122Z,6.63
2023-08-14T09:04:47.924Z,5.53
2023-08-14T09:07:16.404Z,5.93
2023-08-14T09:09:44.246Z,5.83
2023-08-14T09:12:12.467Z,7.60
2023-08-14T09:14:42.450Z,3.30
2023-08-14T09:17:11.914Z,4.00
2023-08-14T09:19:42.458Z,9.13
2023-08-14T09:22:12.340Z,5.27
2023-08-14T09:24:40.857Z,6.23
2023-08-14T09:27:08.897Z,6.20
2023-08-14T09:29:37.054Z,6.60
2023-08-14T09:32:05.633Z,3.00
2023-08-14T09:34:33.976Z,7.20
2023-08-14T09:37:01.769Z,5.53
2023-08-14T09:39:31.016Z,3.67
2023-08-14T09:41:58.995Z,5.80
2023-08-14T09:44:26.765Z,4.30
2023-08-14T09:46:55.948Z,6.63
2023-08-14T09:49:24.317Z,4.13
2023-08-14T09:51:55.949Z,4.50
2023-08-14T09:54:34.974Z,7.80
2023-08-14T09:57:09.525Z,5.00
2023-08-14T09:59:38.342Z,7.33
2023-08-14T10:02:07.464Z,4.90
2023-08-14T10:04:36.644Z,4.20
2023-08-14T10:07:05.934Z,3.83
2023-08-14T10:09:39.070Z,3.50
2023-08-14T10:12:08.962Z,2.43
2023-08-14T10:14:38.012Z,4.23
2023-08-14T10:17:07.595Z,4.63
2023-08-14T10:19:36.839Z,9.93
2023-08-14T10:22:07.359Z,6.07
2023-08-14T10:24:37.647Z,5.07
2023-08-14T10:27:06.299Z,3.60
2023-08-14T10:29:35.321Z,3.80
2023-08-14T10:32:03.812Z,6.17
2023-08-14T10:34:31.825Z,3.27
2023-08-14T10:36:59.912Z,5.03
2023-08-14T10:39:34.837Z,6.00
2023-08-14T10:42:05.612Z,4.20
2023-08-14T10:44:34.696Z,5.33
2023-08-14T10:47:06.137Z,4.40
2023-08-14T10:49:38.964Z,5.93
2023-08-14T10:52:07.752Z,2.87
2023-08-14T10:54:38.614Z,4.30
2023-08-14T10:57:10.232Z,4.20
2023-08-14T10:59:38.006Z,5.70
2023-08-14T11:02:07.009Z,4.40
2023-08-14T11:04:37.676Z,9.83
2023-08-14T11:07:10.468Z,3.60
2023-08-14T11:09:39.188Z,6.60
2023-08-14T11:12:08.175Z,4.37
2023-08-14T11:14:39.127Z,4.93
2023-08-14T11:17:07.359Z,3.20
2023-08-14T11:19:36.064Z,5.83
2023-08-14T11:22:04.369Z,7.33
2023-08-14T11:24:33.364Z,3.93
2023-08-14T11:27:01.530Z,4.67
2023-08-14T11:29:31.094Z,3.60
2023-08-14T11:32:02.349Z,2.93
2023-08-14T11:34:33.513Z,5.30
2023-08-14T11:39:33.436Z,3.50
2023-08-14T11:42:02.935Z,3.47
2023-08-14T11:44:31.110Z,4.93
2023-08-14T11:46:59.299Z,5.90
2023-08-14T11:49:29.464Z,7.00
2023-08-14T11:51:57.550Z,5.20
2023-08-14T11:54:26.996Z,7.30
2023-08-14T11:56:56.188Z,5.60
2023-08-14T11:59:25.575Z,5.67
2023-08-14T12:01:53.956Z,6.30
2023-08-14T12:04:23.444Z,6.23
2023-08-14T12:06:52.820Z,8.33
2023-08-14T12:09:20.944Z,4.07
2023-08-14T12:11:51.723Z,9.10
2023-08-14T12:14:19.793Z,10.53
2023-08-14T12:16:47.733Z,4.97
2023-08-14T12:19:15.583Z,5.50
2023-08-14T12:21:43.369Z,6.57
2023-08-14T12:24:18.343Z,5.60
2023-08-14T12:26:46.858Z,4.30
2023-08-14T12:29:15.179Z,5.20
2023-08-14T12:31:43.610Z,4.00
2023-08-14T12:34:11.823Z,4.17
2023-08-14T12:36:39.772Z,4.80
2023-08-14T12:39:07.990Z,5.77
2023-08-14T12:41:37.146Z,3.60
2023-08-14T12:44:06.376Z,2.80
2023-08-14T12:46:34.626Z,3.90
2023-08-14T12:49:02.508Z,4.03
2023-08-14T12:51:30.521Z,3.20
2023-08-14T12:53:58.424Z,10.93
2023-08-14T12:56:26.228Z,6.73
2023-08-14T12:58:56.409Z,4.50
2023-08-14T13:01:25.075Z,7.30
2023-08-14T13:03:56.729Z,3.87
2023-08-14T13:06:28.018Z,4.73
2023-08-14T13:08:55.876Z,4.43
2023-08-14T13:11:23.940Z,2.87
2023-08-14T13:13:52.090Z,6.67
2023-08-14T13:16:21.347Z,3.60
2023-08-14T13:18:49.587Z,3.87
2023-08-14T13:21:17.621Z,5.23
2023-08-14T13:23:45.464Z,4.00
2023-08-14T13:26:26.017Z,3.03
2023-08-14T13:28:56.066Z,4.10
2023-08-14T13:31:25.311Z,9.40
2023-08-14T13:33:53.432Z,6.93
2023-08-14T13:36:21.571Z,4.17
2023-08-14T13:38:49.416Z,5.17
2023-08-14T13:41:17.240Z,6.70
2023-08-14T13:43:45.352Z,4.47
2023-08-14T13:46:13.138Z,6.60
2023-08-14T13:48:42.306Z,6.10
2023-08-14T13:51:10.523Z,8.30
2023-08-14T13:53:38.395Z,8.43
2023-08-14T13:56:06.777Z,5.53
2023-08-14T13:58:34.837Z,6.83
2023-08-14T14:01:03.350Z,5.67
2023-08-14T14:03:31.378Z,6.80
2023-08-14T14:06:00.780Z,7.20
2023-08-14T14:08:28.738Z,7.30
2023-08-14T14:10:56.536Z,6.10
2023-08-14T14:13:24.867Z,9.50
2023-08-14T14:15:52.667Z,8.43
2023-08-14T14:18:20.633Z,5.20
2023-08-14T14:20:50.350Z,10.20
2023-08-14T14:23:19.801Z,6.67
2023-08-14T14:25:47.500Z,6.00
2023-08-14T14:28:17.019Z,6.67
2023-08-14T14:30:44.695Z,6.83
2023-08-14T14:33:12.627Z,6.93
2023-08-14T14:35:40.778Z,8.07
2023-08-14T14:38:08.527Z,7.83
2023-08-14T14:40:37.630Z,6.50
2023-08-14T14:43:05.942Z,7.77
2023-08-14T14:45:35.539Z,7.77
2023-08-14T14:48:04.539Z,6.83
2023-08-14T14:50:32.488Z,6.20
2023-08-14T14:53:00.534Z,8.07
2023-08-14T14:55:29.026Z,6.27
2023-08-14T14:57:58.430Z,9.10
2023-08-14T15:00:27.132Z,9.03
2023-08-14T15:02:55.109Z,4.77
2023-08-14T15:07:56.363Z,6.70
2023-08-14T15:10:24.400Z,6.53
2023-08-14T15:12:52.240Z,15.43
2023-08-14T15:15:21.470Z,10.70
2023-08-14T15:17:49.805Z,8.33
2023-08-14T15:20:17.581Z,9.17
2023-08-14T15:22:45.754Z,5.90
2023-08-14T15:25:14.323Z,13.40
2023-08-14T15:27:42.168Z,7.07
2023-08-14T15:30:10.714Z,6.87
2023-08-14T15:32:40.752Z,12.57
2023-08-14T15:35:08.912Z,14.07
2023-08-14T15:37:37.140Z,6.13
2023-08-14T15:40:06.225Z,7.50
2023-08-14T15:42:34.242Z,7.03
2023-08-14T15:45:01.998Z,6.93
2023-08-14T15:47:30.404Z,7.40
2023-08-14T15:49:59.823Z,9.60
2023-08-14T15:52:31.337Z,8.30
2023-08-14T15:54:59.635Z,9.40
2023-08-14T15:57:27.750Z,6.20
2023-08-14T15:59:55.849Z,12.00
2023-08-14T16:02:23.731Z,8.40
2023-08-14T16:04:51.998Z,9.20
2023-08-14T16:07:21.875Z,8.00
2023-08-14T16:09:51.091Z,9.00
2023-08-14T16:12:19.104Z,11.50
2023-08-14T16:14:47.323Z,7.60
2023-08-14T16:17:15.072Z,9.57
2023-08-14T16:19:42.860Z,11.77
2023-08-14T16:22:10.714Z,9.37
2023-08-14T16:24:40.333Z,8.00
2023-08-14T16:27:08.965Z,12.03
2023-08-14T16:29:36.949Z,11.10
2023-08-14T16:32:04.992Z,8.53
2023-08-14T16:34:33.489Z,13.03
2023-08-14T16:37:01.378Z,12.00
2023-08-14T16:39:29.095Z,10.57
2023-08-14T16:41:58.328Z,8.47
2023-08-14T16:44:26.456Z,12.20
2023-08-14T16:46:54.203Z,11.27
2023-08-14T16:49:21.983Z,9.83
2023-08-14T16:51:50.053Z,11.10
2023-08-14T16:54:17.834Z,9.27
2023-08-14T16:56:45.546Z,9.70
2023-08-14T16:59:15.457Z,15.97
2023-08-14T17:01:43.756Z,9.10
2023-08-14T17:04:11.651Z,13.73
2023-08-14T17:06:40.144Z,25.43
2023-08-14T17:09:09.473Z,11.73
2023-08-14T17:11:37.530Z,16.57
2023-08-14T17:16:57.065Z,8.30
2023-08-14T17:19:26.246Z,9.93
2023-08-14T17:21:53.961Z,10.67
2023-08-14T17:24:21.753Z,9.40
2023-08-14T17:26:49.638Z,11.73
2023-08-14T17:29:17.555Z,10.47
2023-08-14T17:31:45.334Z,12.70
2023-08-14T17:34:15.499Z,12.00
2023-08-14T17:36:43.512Z,11.17
2023-08-14T17:39:11.800Z,8.30
2023-08-14T17:41:39.519Z,8.67
2023-08-14T17:44:07.397Z,14.57
2023-08-14T17:46:35.167Z,10.80
2023-08-14T17:49:03.032Z,9.67
2023-08-14T17:51:32.210Z,9.80
2023-08-14T17:54:00.229Z,8.93
2023-08-14T17:56:28.435Z,9.27
2023-08-14T17:58:56.195Z,7.23
2023-08-14T18:01:24.255Z,6.93
2023-08-14T18:03:52.401Z,9.07
2023-08-14T18:06:20.198Z,6.97
2023-08-14T18:08:49.323Z,8.50
2023-08-14T18:11:18.525Z,7.67
2023-08-14T18:13:46.310Z,12.43
2023-08-14T18:16:14.840Z,8.60
2023-08-14T18:18:43.076Z,9.00
2023-08-14T18:21:12.035Z,8.53
2023-08-14T18:23:41.179Z,13.07
2023-08-14T18:26:11.197Z,20.57
2023-08-14T18:28:39.131Z,7.73
2023-08-14T18:31:06.968Z,6.97
2023-08-14T18:33:35.229Z,9.00
2023-08-14T18:36:03.011Z,9.93
2023-08-14T18:38:30.963Z,8.53
2023-08-14T18:40:59.370Z,8.47
2023-08-14T18:43:28.803Z,8.70
2023-08-14T18:45:56.967Z,7.40
2023-08-14T18:48:25.254Z,6.93
2023-08-14T18:50:53.029Z,6.47
2023-08-14T18:53:21.514Z,9.93
2023-08-14T18:55:51.442Z,9.27
2023-08-14T18:58:20.261Z,8.00
2023-08-14T19:00:49.621Z,7.50
2023-08-14T19:03:17.818Z,9.53
2023-08-14T19:05:47.800Z,7.77
2023-08-14T19:08:15.667Z,8.00
2023-08-14T19:10:43.614Z,10.80
2023-08-14T19:13:11.780Z,8.57
2023-08-14T19:15:39.598Z,12.03
2023-08-14T19:18:09.291Z,10.77
2023-08-14T19:20:40.331Z,16.50
2023-08-14T19:23:09.046Z,12.43
2023-08-14T19:25:37.345Z,14.37
2023-08-14T19:28:19.539Z,11.30
2023-08-14T19:30:51.224Z,13.53
2023-08-14T19:33:20.416Z,6.73
2023-08-14T19:35:48.464Z,9.90
2023-08-14T19:38:16.250Z,11.43
2023-08-14T19:40:44.103Z,7.63
2023-08-14T19:43:12.309Z,7.27
2023-08-14T19:45:41.891Z,7.60
2023-08-14T19:48:09.660Z,7.77
2023-08-14T19:50:45.196Z,7.07
2023-08-14T19:53:12.981Z,8.90
2023-08-14T19:55:40.962Z,7.10
2023-08-14T19:58:09.169Z,9.10
2023-08-14T20:00:36.988Z,7.93
2023-08-14T20:03:06.094Z,8.50
2023-08-14T20:05:33.969Z,11.10
2023-08-14T20:08:03.133Z,6.50
2023-08-14T20:10:31.018Z,6.97
2023-08-14T20:12:58.879Z,9.03
2023-08-14T20:15:26.878Z,13.20
2023-08-14T20:17:54.793Z,11.80
2023-08-14T20:20:23.128Z,9.10
2023-08-14T20:22:50.976Z,11.70
2023-08-14T20:25:20.364Z,10.50
2023-08-14T20:27:48.424Z,11.30
2023-08-14T20:30:16.237Z,8.17
2023-08-14T20:32:44.116Z,11.10
2023-08-14T20:35:12.121Z,9.47
2023-08-14T20:37:39.917Z,10.73
2023-08-14T20:40:09.951Z,10.47
2023-08-14T20:42:39.254Z,9.57
2023-08-14T20:45:07.502Z,7.40
2023-08-14T20:47:36.055Z,9.57
2023-08-14T20:50:04.279Z,10.97
2023-08-14T20:52:32.060Z,11.37
2023-08-14T20:55:00.526Z,11.60
2023-08-14T20:57:28.840Z,10.10
2023-08-14T20:59:58.159Z,12.13
2023-08-14T21:02:26.046Z,13.80
2023-08-14T21:04:54.028Z,12.40
2023-08-14T21:07:22.038Z,11.63
2023-08-14T21:09:51.400Z,8.57
2023-08-14T21:12:19.731Z,12.43
2023-08-14T21:14:47.529Z,9.07
2023-08-14T21:17:16.802Z,12.80
2023-08-14T21:19:46.128Z,10.50
2023-08-14T21:22:13.914Z,11.70
2023-08-14T21:24:42.078Z,11.50
2023-08-14T21:27:10.925Z,11.00
2023-08-14T21:29:38.843Z,9.77
2023-08-14T21:32:07.255Z,9.10
2023-08-14T21:34:37.242Z,12.23
2023-08-14T21:37:05.340Z,11.40
2023-08-14T21:39:33.038Z,8.93
2023-08-14T21:42:01.182Z,23.40
2023-08-14T21:44:28.911Z,11.67
2023-08-14T21:46:56.796Z,9.47
2023-08-14T21:49:24.576Z,9.27
2023-08-14T21:51:53.939Z,9.17
2023-08-14T21:54:22.119Z,14.40
2023-08-14T21:56:49.917Z,12.80
2023-08-14T21:59:17.785Z,10.23
2023-08-14T22:01:46.122Z,10.63
2023-08-14T22:04:14.148Z,9.73
2023-08-14T22:06:41.914Z,12.70
2023-08-14T22:09:11.353Z,11.10
2023-08-14T22:11:39.535Z,10.70
2023-08-14T22:14:07.326Z,12.80
2023-08-14T22:16:35.076Z,11.37
2023-08-14T22:19:03.432Z,12.10
2023-08-14T22:21:31.171Z,18.53
2023-08-14T22:23:58.998Z,13.57
2023-08-14T22:26:28.140Z,11.83
2023-08-14T22:28:55.980Z,12.50
2023-08-14T22:31:23.991Z,13.80
2023-08-14T22:33:52.066Z,15.63
2023-08-14T22:36:19.970Z,13.47
2023-08-14T22:38:48.324Z,12.77
2023-08-14T22:41:16.150Z,13.90
2023-08-14T22:43:45.305Z,13.37
2023-08-14T22:46:13.044Z,12.90
2023-08-14T22:48:41.293Z,10.77
2023-08-14T22:51:09.002Z,12.97
2023-08-14T22:53:36.993Z,16.60
2023-08-14T22:56:05.103Z,17.60
2023-08-14T22:58:33.606Z,14.90
2023-08-14T23:01:03.157Z,15.00
2023-08-14T23:03:34.019Z,13.43
2023-08-14T23:06:01.795Z,10.93
2023-08-14T23:08:29.892Z,13.27
2023-08-14T23:10:57.602Z,14.13
2023-08-14T23:13:25.421Z,11.40
2023-08-14T23:15:53.423Z,12.07
2023-08-14T23:18:23.103Z,16.33
2023-08-14T23:20:50.806Z,10.00
2023-08-14T23:23:18.578Z,88.57
2023-08-14T23:25:46.959Z,168.87
2023-08-14T23:28:14.843Z,36.97
2023-08-14T23:30:43.246Z,72.30
2023-08-14T23:33:12.708Z,142.83
2023-08-14T23:35:41.812Z,52.77
2023-08-14T23:38:10.103Z,35.07
2023-08-14T23:40:37.941Z,95.63
2023-08-14T23:43:05.860Z,177.13
2023-08-14T23:45:33.721Z,155.33
2023-08-14T23:48:02.539Z,66.43
2023-08-14T23:50:30.324Z,38.17
2023-08-14T23:52:59.406Z,136.00
2023-08-14T23:55:28.190Z,91.97
